Boryslav — ENLB — position and weather

sailwx.info

Track history (hours):
 
Tides and Currents Weather Stations Pressure Air Temp Water Temp Dewpoint Dewpoint Depression Visibility Wind Speed Wind Dir Waves Ship Positions

Boryslav

Last reported at 2014-Oct-22 10:33 UTC. Time now 2014-Oct-25 12:52 UTC.
Position N 48°01' E 035°08'.

Length 86 m; draft 2.3 m.

Type: Ship (hazmat cat D). MMSI: 272088700.

Date/timePositionNaut miles runAvg speedWind from/ knotsBaromVisibWave heightAir tempDewpointWater temp
2014-Oct-22 10:33N 48°01' E 035°08'5 5.4
2014-Oct-22 09:33N 47°55' E 035°07'4 3.6
2014-Oct-22 08:33N 47°52' E 035°05'2 1.7
2014-Oct-22 07:34N 47°50' E 035°06'0 0.0
2014-Oct-22 06:33N 47°50' E 035°06'0 0.0
2014-Oct-22 05:33N 47°50' E 035°06'0 0.0
2014-Oct-22 04:34N 47°50' E 035°06'2 2.5
2014-Oct-22 03:33N 47°49' E 035°09'0 0.4
2014-Oct-22 02:34N 47°48' E 035°09'0 0.0
2014-Oct-22 01:33N 47°48' E 035°09'0 0.0
2014-Oct-22 00:34N 47°48' E 035°09'0 0.0
2014-Oct-21 23:34N 47°48' E 035°09'0 0.0
2014-Oct-21 22:34N 47°48' E 035°09'0 0.0
2014-Oct-21 21:34N 47°48' E 035°09'0 0.0
2014-Oct-21 20:34N 47°48' E 035°09'0 0.0
2014-Oct-21 19:33N 47°48' E 035°09'3 3.2
2014-Oct-21 18:34N 47°45' E 035°10'4 3.6
2014-Oct-21 17:33N 47°42' E 035°08'  
Track history (hours):
 
Tides and Currents Weather Stations Pressure Air Temp Water Temp Dewpoint Dewpoint Depression Visibility Wind Speed Wind Dir Waves Ship Positions

Boryslav

Last reported at 2014-Oct-22 10:33 UTC. Time now 2014-Oct-25 12:52 UTC.
Position N 48°01' E 035°08'.

Length 86 m; draft 2.3 m.

Type: Ship (hazmat cat D). MMSI: 272088700.

Date/timePositionNaut miles runAvg speedWind from/ knotsBaromVisibWave heightAir tempDewpointWater temp
2014-Oct-22 10:33N 48°01' E 035°08'5 5.4
2014-Oct-22 09:33N 47°55' E 035°07'4 3.6
2014-Oct-22 08:33N 47°52' E 035°05'2 1.7
2014-Oct-22 07:34N 47°50' E 035°06'0 0.0
2014-Oct-22 06:33N 47°50' E 035°06'0 0.0
2014-Oct-22 05:33N 47°50' E 035°06'0 0.0
2014-Oct-22 04:34N 47°50' E 035°06'2 2.5
2014-Oct-22 03:33N 47°49' E 035°09'0 0.4
2014-Oct-22 02:34N 47°48' E 035°09'0 0.0
2014-Oct-22 01:33N 47°48' E 035°09'0 0.0
2014-Oct-22 00:34N 47°48' E 035°09'0 0.0
2014-Oct-21 23:34N 47°48' E 035°09'0 0.0
2014-Oct-21 22:34N 47°48' E 035°09'0 0.0
2014-Oct-21 21:34N 47°48' E 035°09'0 0.0
2014-Oct-21 20:34N 47°48' E 035°09'0 0.0
2014-Oct-21 19:33N 47°48' E 035°09'3 3.2
2014-Oct-21 18:34N 47°45' E 035°10'4 3.6
2014-Oct-21 17:33N 47°42' E 035°08'  

Dump ship's entire track history